• Join FlightAware (Why Join?)
  • Login
  • US Flag 
03:45PM EDT


 

Airport Tracker/Info


-or-


 

Live Flight TrackerFlight Track Log ✈ RZO200 ✈ 06-May-2012 ✈ KBOS - LPPT / LIS

Flight Track Log - Related Links

Times and Time Zones

All times are in EDT time to prevent confusion due to time zone crossing. See the RZO200 flight status page for this flight to view local times or setup timezone preferences in your user account.

Time Position Orientation Groundspeed Altitude Reporting Facility
EDT Latitude Longitude Course Direction KTS MPH feet Rate Location/Type
09:07PM 42.3211 -70.9014 80° East 218 251 3,100  Level Boston Center
09:08PM 42.3325 -70.8111 91° East 235 270 6,300 2,880 Climbing Boston Center
09:09PM 42.3311 -70.7269 95° East 251 289 8,900 2,400 Climbing Boston Center
09:10PM 42.3231 -70.6064 96° East 278 320 11,200 2,160 Climbing Boston Center
09:11PM 42.3125 -70.4664 91° East 325 374 13,300 2,280 Climbing Boston Center
09:12PM 42.3097 -70.3231 90° East 363 418 15,800 2,340 Climbing Boston Center
09:13PM 42.3089 -70.1717 92° East 385 443 18,000 2,040 Climbing Boston Center
09:14PM 42.3056 -70.0117 92° East 406 467 19,900 1,740 Climbing Boston Center
09:15PM 42.3017 -69.8378 91° East 434 499 21,500 1,680 Climbing Boston Center
09:16PM 42.2994 -69.6469 92° East 450 518 23,300 1,800 Climbing Boston Center
09:17PM 42.2947 -69.4647 94° East 470 541 25,100 1,680 Climbing Boston Center
09:18PM 42.2861 -69.2967 95° East 479 551 26,700 1,200 Climbing Boston Center
09:19PM 42.2739 -69.0925 91° East 490 564 27,600 1,200 Climbing Boston Center
09:20PM 42.2725 -68.9100 92° East 505 581 29,100 1,500 Climbing Boston Center
09:21PM 42.2661 -68.7139 92° East 516 594 30,600 1,500 Climbing Boston Center
09:22PM 42.2597 -68.5178 93° East 516 594 32,100 1,200 Climbing Boston Center
09:23PM 42.2528 -68.3247 93° East 516 594 33,000 420 Climbing Boston Center
09:24PM 42.2456 -68.1317 93° East 516 594 33,000  Level Boston Center
09:25PM 42.2383 -67.9442 93° East 511 588 33,000  Level Boston Center
09:26PM 42.2306 -67.7539 93° East 511 588 33,000  Level Boston Center
09:27PM 42.2222 -67.5581 93° East 511 588 33,000  Level Boston Center
09:28PM 42.2142 -67.3708 94° East 511 588 33,000  Level Boston Center
09:29PM 42.2053 -67.1808 91° East 511 588 33,000  Level Boston Center
09:30PM 42.2000 -66.9000 76° East 490 564 33,000  Level Moncton Center
09:31PM 42.2333 -66.7167 66° East 470 541 33,000  Level Moncton Center
09:32PM 42.2833 -66.5667 75° East 470 541 33,000  Level Moncton Center
09:33PM 42.3167 -66.4000 75° East 460 529 33,000  Level Moncton Center
09:34PM 42.3500 -66.2333 75° East 460 529 33,000  Level Moncton Center
09:35PM 42.3833 -66.0667 70° East 470 541 33,000  Level Moncton Center
09:36PM 42.4333 -65.8833 68° East 470 541 33,000  Level Moncton Center
09:37PM 42.4833 -65.7167 75° East 480 552 33,000  Level Moncton Center
09:38PM 42.5167 -65.5500 76° East 460 529 33,000  Level Moncton Center
09:39PM 42.5500 -65.3667 76° East 470 541 33,000  Level Moncton Center
09:40PM 42.5833 -65.1833 73° East 480 552 33,000  Level Moncton Center
09:41PM 42.6167 -65.0333 75° East 470 541 33,000  Level Moncton Center
09:42PM 42.6500 -64.8667 75° East 470 541 33,000  Level Moncton Center
09:43PM 42.6833 -64.7000 75° East 460 529 33,000  Level Moncton Center
09:44PM 42.7167 -64.5333 76° East 470 541 33,000  Level Moncton Center
09:45PM 42.7500 -64.3500 76° East 470 541 33,000  Level Moncton Center
09:46PM 42.7833 -64.1667 70° East 480 552 33,000  Level Moncton Center
09:47PM 42.8333 -63.9833 73° East 480 552 33,000  Level Moncton Center
09:48PM 42.8667 -63.8333 76° East 480 552 33,000  Level Moncton Center
09:49PM 42.9000 -63.6500 75° East 480 552 33,000  Level Moncton Center
09:50PM 42.9333 -63.4833 76° East 470 541 33,000  Level Moncton Center
09:51PM 42.9667 -63.3000 75° East 470 541 33,000  Level Moncton Center
09:52PM 43.0000 -63.1333 83° East 470 541 33,000  Level Moncton Center
09:53PM 43.0167 -62.9500 73° East 470 541 33,000  Level Moncton Center
09:54PM 43.0500 -62.8000 76° East 460 529 33,000  Level Moncton Center
09:55PM 43.0833 -62.6167 75° East 470 541 33,000  Level Moncton Center
09:56PM 43.1167 -62.4500 75° East 460 529 33,000  Level Moncton Center
09:57PM 43.1500 -62.2833 69° East 460 529 33,000  Level Moncton Center
09:58PM 43.2000 -62.1000 81° East 470 541 33,000  Level Moncton Center
09:59PM 43.2167 -61.9500 76° East 470 541 33,000  Level Moncton Center
10:00PM 43.2500 -61.7667 75° East 460 529 33,000  Level Moncton Center
10:01PM 43.2833 -61.6000 76° East 460 529 33,000  Level Moncton Center
10:02PM 43.3167 -61.4167 82° East 460 529 33,000  Level Moncton Center
10:03PM 43.3333 -61.2500 76° East 460 529 33,000  Level Moncton Center
10:04PM 43.3667 -61.0667 75° East 450 518 33,000 180 Level Moncton Center
10:05PM 43.4000 -60.9000 82° East 450 518 33,400 480 Climbing Moncton Center
10:06PM 43.4167 -60.7333 76° East 460 529 34,000 600 Climbing Moncton Center
10:07PM 43.4500 -60.5500 75° East 470 541 34,600 480 Climbing Moncton Center
10:08PM 43.4833 -60.3833 83° East 460 529 35,000 180 Climbing Moncton Center
10:09PM 43.5000 -60.2000 75° East 460 529 35,000  Level Moncton Center
10:10PM 43.5333 -60.0333 83° East 460 529 35,000  Level Moncton Center
10:11PM 43.5500 -59.8500 75° East 460 529 35,000  Level Moncton Center
10:12PM 43.5833 -59.6833 71° East 460 529 35,000  Level Moncton Center
10:13PM 43.6333 -59.4833 76° East 460 529 35,000  Level Gander Center
10:14PM 43.6667 -59.3000 90° East 470 541 35,000  Level Gander Center
10:15PM 43.6667 -59.1500 74° East 460 529 35,000  Level Gander Center
10:16PM 43.7000 -58.9833 74° East 460 529 35,000  Level Moncton Center
10:17PM 43.7333 -58.8167 83° East 470 541 35,000  Level Moncton Center
10:18PM 43.7500 -58.6333 74° East 470 541 35,000  Level Moncton Center
10:19PM 43.7833 -58.4667 82° East 460 529 35,000  Level Moncton Center
10:20PM 43.8000 -58.3000 82° East 470 541 35,000  Level Moncton Center
10:21PM 43.8167 -58.1333 76° East 460 529 35,000  Level Moncton Center
10:22PM 43.8500 -57.9500 82° East 450 518 35,000  Level Moncton Center
10:23PM 43.8667 -57.7833 76° East 450 518 35,000  Level Moncton Center
10:24PM 43.9000 -57.6000 82° East 440 506 35,000  Level Moncton Center
10:25PM 43.9167 -57.4333 82° East 450 518 35,000  Level Moncton Center
10:26PM 43.9333 -57.2667 74° East 450 518 35,000  Level Moncton Center
10:27PM 43.9667 -57.1000 82° East 450 518 35,000  Level Moncton Center
10:28PM 43.9833 -56.9333 83° East 440 506 35,000  Level Moncton Center
10:29PM 44.0000 -56.7500 74° East 460 529 35,000  Level Moncton Center
10:30PM 44.0333 -56.5833 90° East 450 518 35,000  Level Moncton Center
10:31PM 44.0333 -56.4000 83° East 450 518 35,000  Level Moncton Center
10:35PM 44.0833 -55.8000 81° East 440 506 35,000  Level Gander Center
10:36PM 44.1000 -55.6500 86° East 450 518 35,000  Level Gander Center
10:38PM 44.1167 -55.3000 85° East 460 529 35,000  Level Gander Center
10:41PM 44.1500 -54.7167 90° East 440 506 35,000  Level Gander Center
10:46PM 44.1500 -53.8167 90° East 440 506 35,000  Level Gander Center
10:47PM 44.1500 -53.6667 83° East 460 529 35,000  Level Gander Center
10:48PM 44.1667 -53.4667 90° East 450 518 35,000  Level Gander Center
10:49PM 44.1667 -53.2833 99° East 450 518 35,000  Level Gander Center
10:50PM 44.1500 -53.1333 90° East 450 518 35,000  Level Gander Center
10:51PM 44.1500 -52.9333 90° East 460 529 35,000  Level Gander Center
10:52PM 44.1500 -52.7833 82° East 450 518 35,000  Level Gander Center
10:53PM 44.1667 -52.6167 97° East 470 541 35,000  Level Gander Center
10:54PM 44.1500 -52.4333 90° East 450 518 35,000  Level Gander Center
10:55PM 44.1500 -52.2500 98° East 450 518 35,000  Level Gander Center
10:56PM 44.1333 -52.0833 97° East 460 529 35,000  Level Gander Center
10:57PM 44.1167 -51.9000 93° East 460 529 35,000  Level Gander Center
10:59PM 44.1000 -51.4833 276° West 450 518 35,000  Level Gander Center
11:00PM 44.1667 -52.4333 95° East 453 521 35,000  Level New York Oceanic (ODAPS)
11:00PM 44.0833 -51.3000 276° West 460 529 35,000  Level Gander Center
11:00PM 44.1667 -52.4333 96° East 453 521 35,000  Level New York Oceanic (ODAPS)
11:01PM 44.0667 -51.1333 90° East 450 518 35,000  Level Gander Center
11:02PM 44.0667 -50.9667 97° East 450 518 35,000  Level Gander Center
11:03PM 44.0500 -50.7833 95° East 450 518 35,000  Level Gander Center
11:10PM 44.0000 -50.0000 102° East 456 525 35,000 -60 Level New York Oceanic (ODAPS)
12:10AM 42.0000 -40.0000 94° East 468 539 34,000  Descending ETMS Enhanced Traffic Management System
12:10AM 41.9741 -39.5498 95° East 456 525 35,000 900 Climbing FlightAware Transoceanic
12:11AM 41.9635 -39.3722 95° East 456 525 35,000  Level FlightAware Transoceanic
12:12AM 41.9525 -39.1946 95° East 456 525 35,000  Level FlightAware Transoceanic
12:13AM 41.9412 -39.0172 95° East 456 525 35,000  Level FlightAware Transoceanic
12:14AM 41.9297 -38.8397 95° East 456 525 35,000 -300 Level FlightAware Transoceanic
12:17AM 41.8956 -38.3370 95° East 468 539 34,000 -300 Descending FlightAware Transoceanic
12:18AM 41.8833 -38.1629 95° East 468 539 34,000  Level FlightAware Transoceanic
12:19AM 41.8707 -37.9889 96° East 468 539 34,000  Level FlightAware Transoceanic
12:20AM 41.8578 -37.8149 96° East 468 539 34,000  Level FlightAware Transoceanic
12:21AM 41.8447 -37.6410 96° East 468 539 34,000  Level FlightAware Transoceanic
12:22AM 41.8313 -37.4672 96° East 468 539 34,000  Level FlightAware Transoceanic
12:23AM 41.8176 -37.2934 96° East 468 539 34,000  Level FlightAware Transoceanic
12:24AM 41.8037 -37.1197 96° East 468 539 34,000  Level FlightAware Transoceanic
12:25AM 41.7896 -36.9461 96° East 468 539 34,000  Level FlightAware Transoceanic
12:26AM 41.7751 -36.7726 96° East 468 539 34,000  Level FlightAware Transoceanic
12:27AM 41.7604 -36.5991 97° East 468 539 34,000  Level FlightAware Transoceanic
12:28AM 41.7455 -36.4258 97° East 468 539 34,000  Level FlightAware Transoceanic
12:29AM 41.7303 -36.2525 97° East 468 539 34,000  Level FlightAware Transoceanic
12:30AM 41.7148 -36.0793 97° East 468 539 34,000  Level FlightAware Transoceanic
12:31AM 41.6990 -35.9062 97° East 468 539 34,000  Level FlightAware Transoceanic
12:32AM 41.6830 -35.7331 97° East 468 539 34,000  Level FlightAware Transoceanic
12:33AM 41.6668 -35.5602 97° East 468 539 34,000  Level FlightAware Transoceanic
12:34AM 41.6503 -35.3873 97° East 468 539 34,000  Level FlightAware Transoceanic
12:35AM 41.6335 -35.2145 97° East 468 539 34,000  Level FlightAware Transoceanic
12:36AM 41.6165 -35.0419 98° East 468 539 34,000  Level FlightAware Transoceanic
12:37AM 41.5992 -34.8693 98° East 468 539 34,000  Level FlightAware Transoceanic
12:38AM 41.5816 -34.6968 98° East 468 539 34,000  Level FlightAware Transoceanic
12:39AM 41.5638 -34.5244 98° East 468 539 34,000  Level FlightAware Transoceanic
12:40AM 41.5457 -34.3521 98° East 468 539 34,000  Level FlightAware Transoceanic
12:41AM 41.5274 -34.1799 98° East 468 539 34,000  Level FlightAware Transoceanic
12:42AM 41.5089 -34.0077 98° East 468 539 34,000  Level FlightAware Transoceanic
12:43AM 41.4900 -33.8357 98° East 468 539 34,000  Level FlightAware Transoceanic
12:44AM 41.4709 -33.6638 98° East 468 539 34,000  Level FlightAware Transoceanic
12:45AM 41.4516 -33.4920 99° East 468 539 34,000  Level FlightAware Transoceanic
12:46AM 41.4320 -33.3203 99° East 468 539 34,000  Level FlightAware Transoceanic
12:47AM 41.4121 -33.1487 99° East 468 539 34,000  Level FlightAware Transoceanic
12:48AM 41.3920 -32.9772 99° East 468 539 34,000  Level FlightAware Transoceanic
12:49AM 41.3716 -32.8058 99° East 468 539 34,000  Level FlightAware Transoceanic
12:50AM 41.3510 -32.6345 99° East 468 539 34,000  Level FlightAware Transoceanic
12:51AM 41.3302 -32.4634 99° East 468 539 34,000  Level FlightAware Transoceanic
12:52AM 41.3090 -32.2923 99° East 468 539 34,000  Level FlightAware Transoceanic
12:53AM 41.2876 -32.1213 100° East 468 539 34,000  Level FlightAware Transoceanic
12:54AM 41.2660 -31.9505 100° East 468 539 34,000  Level FlightAware Transoceanic
12:55AM 41.2441 -31.7798 100° East 468 539 34,000  Level FlightAware Transoceanic
12:56AM 41.2220 -31.6092 100° East 468 539 34,000  Level FlightAware Transoceanic
12:57AM 41.1996 -31.4387 100° East 468 539 34,000  Level FlightAware Transoceanic
12:58AM 41.1769 -31.2683 100° East 468 539 34,000  Level FlightAware Transoceanic
12:59AM 41.1541 -31.0981 100° East 468 539 34,000  Level FlightAware Transoceanic
01:00AM 41.1309 -30.9279 100° East 468 539 34,000  Level FlightAware Transoceanic
01:01AM 41.1075 -30.7579 100° East 468 539 34,000  Level FlightAware Transoceanic
01:02AM 41.0839 -30.5880 101° East 468 539 34,000  Level FlightAware Transoceanic
01:03AM 41.0600 -30.4182 101° East 468 539 34,000  Level FlightAware Transoceanic
01:04AM 41.0359 -30.2486 87° East 468 539 34,000  Level FlightAware Transoceanic
01:05AM 41.0428 -30.0746 109° East  Level FlightAware Approximate
01:06AM 41.0034 -29.9198 90° East  Level FlightAware Approximate
01:07AM 41.0029 -29.7457 90° East  Level FlightAware Approximate
01:08AM 41.0022 -29.5716 90° East  Level FlightAware Approximate
01:09AM 41.0011 -29.3975 91° East  Level FlightAware Approximate
01:10AM 40.9999 -29.2234 91° East  Level FlightAware Approximate
01:11AM 40.9983 -29.0493 91° East  Level FlightAware Approximate
01:12AM 40.9965 -28.8752 91° East  Level FlightAware Approximate
01:13AM 40.9944 -28.7012 91° East  Level FlightAware Approximate
01:14AM 40.9921 -28.5271 91° East  Level FlightAware Approximate
01:15AM 40.9894 -28.3531 91° East  Level FlightAware Approximate
01:16AM 40.9866 -28.1791 91° East  Level FlightAware Approximate
01:17AM 40.9835 -28.0051 91° East  Level FlightAware Approximate
01:18AM 40.9801 -27.8311 92° East  Level FlightAware Approximate
01:19AM 40.9764 -27.6571 92° East  Level FlightAware Approximate
01:20AM 40.9725 -27.4832 92° East  Level FlightAware Approximate
01:21AM 40.9683 -27.3092 92° East  Level FlightAware Approximate
01:22AM 40.9639 -27.1353 92° East  Level FlightAware Approximate
01:23AM 40.9592 -26.9614 92° East  Level FlightAware Approximate
01:24AM 40.9542 -26.7876 92° East  Level FlightAware Approximate
01:25AM 40.9490 -26.6137 92° East  Level FlightAware Approximate
01:26AM 40.9435 -26.4399 92° East  Level FlightAware Approximate
01:27AM 40.9378 -26.2662 93° East  Level FlightAware Approximate
01:28AM 40.9318 -26.0924 93° East  Level FlightAware Approximate
01:29AM 40.9255 -25.9187 93° East  Level FlightAware Approximate
01:30AM 40.9190 -25.7450 93° East  Level FlightAware Approximate
01:31AM 40.9122 -25.5714 93° East  Level FlightAware Approximate
01:32AM 40.9052 -25.3978 93° East  Level FlightAware Approximate
01:33AM 40.8979 -25.2242 93° East  Level FlightAware Approximate
01:34AM 40.8903 -25.0507 93° East  Level FlightAware Approximate
01:35AM 40.8825 -24.8772 93° East  Level FlightAware Approximate
01:36AM 40.8744 -24.7037 94° East  Level FlightAware Approximate
01:37AM 40.8661 -24.5303 94° East  Level FlightAware Approximate
01:38AM 40.8574 -24.3570 94° East  Level FlightAware Approximate
01:39AM 40.8486 -24.1836 94° East  Level FlightAware Approximate
01:40AM 40.8395 -24.0104 94° East  Level FlightAware Approximate
01:41AM 40.8301 -23.8372 94° East  Level FlightAware Approximate
01:42AM 40.8204 -23.6640 94° East  Level FlightAware Approximate
01:43AM 40.8106 -23.4909 94° East  Level FlightAware Approximate
01:44AM 40.8004 -23.3178 94° East  Level FlightAware Approximate
01:45AM 40.7900 -23.1448 95° East  Level FlightAware Approximate
01:46AM 40.7793 -22.9718 95° East  Level FlightAware Approximate
01:47AM 40.7684 -22.7989 95° East  Level FlightAware Approximate
01:48AM 40.7572 -22.6261 95° East  Level FlightAware Approximate
01:49AM 40.7457 -22.4533 95° East  Level FlightAware Approximate
01:50AM 40.7340 -22.2806 95° East  Level FlightAware Approximate
01:51AM 40.7221 -22.1079 95° East  Level FlightAware Approximate
01:52AM 40.7098 -21.9353 95° East  Level FlightAware Approximate
01:53AM 40.6974 -21.7628 96° East  Level FlightAware Approximate
01:54AM 40.6846 -21.5903 96° East  Level FlightAware Approximate
01:55AM 40.6716 -21.4179 96° East  Level FlightAware Approximate
01:56AM 40.6584 -21.2456 96° East  Level FlightAware Approximate
01:57AM 40.6449 -21.0733 96° East  Level FlightAware Approximate
01:58AM 40.6311 -20.9011 96° East  Level FlightAware Approximate
01:59AM 40.6171 -20.7290 96° East  Level FlightAware Approximate
02:00AM 40.6028 -20.5569 96° East  Level FlightAware Approximate
02:01AM 40.5883 -20.3849 98° East  Level FlightAware Approximate
02:02AM 40.5705 -20.2135 98° East  Level FlightAware Approximate
02:03AM 40.5525 -20.0422 98° East  Level FlightAware Approximate
02:04AM 40.5342 -19.8710 98° East  Level FlightAware Approximate
02:05AM 40.5156 -19.6999 98° East  Level FlightAware Approximate
02:06AM 40.4968 -19.5288 98° East  Level FlightAware Approximate
02:07AM 40.4778 -19.3579 98° East  Level FlightAware Approximate
02:08AM 40.4585 -19.1871 99° East  Level FlightAware Approximate
02:09AM 40.4389 -19.0163 99° East  Level FlightAware Approximate
02:10AM 40.4191 -18.8457 99° East  Level FlightAware Approximate
02:11AM 40.3990 -18.6751 99° East  Level FlightAware Approximate
02:12AM 40.3787 -18.5047 99° East  Level FlightAware Approximate
02:13AM 40.3582 -18.3344 99° East  Level FlightAware Approximate
02:14AM 40.3373 -18.1642 99° East  Level FlightAware Approximate
02:15AM 40.3163 -17.9940 99° East  Level FlightAware Approximate
02:16AM 40.2950 -17.8240 99° East  Level FlightAware Approximate
02:17AM 40.2734 -17.6541 100° East  Level FlightAware Approximate
02:18AM 40.2513 -17.4844 100° East  Level FlightAware Approximate
02:19AM 40.2289 -17.3148 100° East  Level FlightAware Approximate
02:20AM 40.2063 -17.1453 100° East  Level FlightAware Approximate
02:21AM 40.1835 -16.9759 100° East  Level FlightAware Approximate
02:22AM 40.1604 -16.8066 100° East  Level FlightAware Approximate
02:23AM 40.1370 -16.6374 100° East  Level FlightAware Approximate
02:24AM 40.1134 -16.4684 100° East  Level FlightAware Approximate
02:25AM 40.0895 -16.2995 101° East  Level FlightAware Approximate
02:26AM 40.0654 -16.1307 101° East  Level FlightAware Approximate
02:27AM 40.0411 -15.9620 101° East  Level FlightAware Approximate
02:28AM 40.0165 -15.7934 101° East  Level FlightAware Approximate
02:29AM 39.9917 -15.6250 101° East  Level FlightAware Approximate
02:30AM 39.9666 -15.4567 101° East  Level FlightAware Approximate
02:31AM 39.9413 -15.2885 101° East  Level FlightAware Approximate
02:32AM 39.9158 -15.1204 50° Northeast  Level FlightAware Approximate
02:33AM 39.9985 -14.9918 103° East  Level FlightAware Approximate
02:34AM 39.9679 -14.8251 104° East  Level FlightAware Approximate
02:35AM 39.9370 -14.6585 104° East  Level FlightAware Approximate
02:36AM 39.9059 -14.4920 104° East  Level FlightAware Approximate
02:37AM 39.8745 -14.3257 104° East  Level FlightAware Approximate
02:38AM 39.8429 -14.1596 104° East  Level FlightAware Approximate
02:39AM 39.8111 -13.9936 104° East  Level FlightAware Approximate
02:40AM 39.7790 -13.8278 104° East  Level FlightAware Approximate
02:41AM 39.7467 -13.6621 104° East  Level FlightAware Approximate
02:42AM 39.7142 -13.4965 104° East  Level FlightAware Approximate
02:43AM 39.6814 -13.3312 104° East  Level FlightAware Approximate
02:44AM 39.6484 -13.1660 105° East  Level FlightAware Approximate
02:45AM 39.6152 -13.0009 105° East  Level FlightAware Approximate
02:46AM 39.5817 -12.8360 105° East  Level FlightAware Approximate
02:47AM 39.5480 -12.6713 105° East  Level FlightAware Approximate
02:48AM 39.5141 -12.5067 105° East  Level FlightAware Approximate
02:49AM 39.4799 -12.3423 105° East  Level FlightAware Approximate
02:50AM 39.4455 -12.1780 105° East  Level FlightAware Approximate
02:51AM 39.4109 -12.0139 105° East  Level FlightAware Approximate
02:52AM 39.3760 -11.8500 103° East  Level FlightAware Approximate
02:53AM 39.3467 -11.6844 106° East  Level FlightAware Approximate
02:54AM 39.3110 -11.5209 105° East  Level FlightAware Approximate
02:55AM 39.2768 -11.3570 110° East  Level FlightAware Approximate
02:56AM 39.2328 -11.1972 104° East  Level FlightAware Approximate
02:57AM 39.1999 -11.0330 106° East  Level FlightAware Approximate
02:58AM 39.1636 -10.8701 104° East  Level FlightAware Approximate
02:59AM 39.1310 -10.7059 106° East  Level FlightAware Approximate
03:00AM 39.0937 -10.5435 107° East  Level FlightAware Approximate
03:01AM 39.0562 -10.3813 107° East  Level FlightAware Approximate
03:02AM 39.0185 -10.2193 104° East  Level FlightAware Approximate
03:03AM 38.9860 -10.0556 107° East  Level FlightAware Approximate
03:04AM 38.9484 -9.8936 108° East  Level FlightAware Approximate
03:05AM 38.9086 -9.7327 108° East  Level FlightAware Approximate
03:06AM 38.8681 -9.5721 108° East  Level FlightAware Approximate
03:07AM 38.8279 -9.4115 107° East  Level FlightAware Approximate
03:08AM 38.7896 -9.2522 104° East  Level FlightAware Approximate
03:09AM 38.7667 -9.1333 352° North  Level FlightAware Approximate
03:10AM 38.8968 -9.1564 172° South  Level Estimated
03:11AM 38.7667 -9.1333 352° North  Level FlightAware Approximate
03:12AM 38.8968 -9.1564 172° South  Level Estimated
03:13AM 38.7667 -9.1333 352° North  Level FlightAware Approximate
03:14AM 38.8968 -9.1564 172° South  Level Estimated
03:15AM 38.7667 -9.1333 352° North  Level FlightAware Approximate
03:16AM 38.8968 -9.1564 172° South  Level Estimated
03:17AM 38.7667 -9.1333 172° South  Level FlightAware Approximate